Time;durP1;ratioP1;P1;durP2;ratioP2;P2;SDS_P1;SDS_P2;PMS_P1;PMS_P2;Temp;Humidity;BMP_temperature;BMP_pressure;BME280_temperature;BME280_humidity;BME280_pressure;Samples;Min_cycle;Max_cycle;Signal;HPM_P1;HPM_P2
2021/08/09 00:00:36;;;;;;;;;3.50;3.50;;;;;19.55;67.97;101166.34;5038883;28;44916;-93
2021/08/09 00:03:01;;;;;;;;;18.25;18.25;;;;;19.53;68.39;101179.09;5036247;28;46746;-92
2021/08/09 00:05:27;;;;;;;;;14.75;14.00;;;;;19.54;67.86;101182.66;5035184;28;44791;-91
2021/08/09 00:07:52;;;;;;;;;32.00;31.75;;;;;19.24;68.55;101136.78;5034701;28;44787;-92
2021/08/09 00:10:18;;;;;;;;;42.50;38.75;;;;;19.25;68.16;101144.72;5021680;28;44966;-92
2021/08/09 00:12:44;;;;;;;;;29.00;29.00;;;;;19.59;67.89;101200.13;5030341;28;45374;-92
2021/08/09 00:15:11;;;;;;;;;39.25;36.25;;;;;19.58;68.47;101200.28;5051390;28;44796;-92
2021/08/09 00:17:38;;;;;;;;;22.75;22.25;;;;;19.61;68.20;101191.91;5031911;28;44881;-92
2021/08/09 00:20:07;;;;;;;;;29.00;29.00;;;;;19.27;68.40;101146.44;5042104;28;44967;-92
2021/08/09 00:22:33;;;;;;;;;28.75;27.25;;;;;19.28;68.08;101132.81;5079380;28;45058;-94
2021/08/09 00:25:01;;;;;;;;;25.50;25.50;;;;;19.37;67.56;101152.72;5048998;28;44722;-92
2021/08/09 00:27:28;;;;;;;;;34.00;33.25;;;;;19.27;68.15;101136.47;5047804;28;44820;-93
2021/08/09 00:29:54;;;;;;;;;30.00;30.00;;;;;19.21;67.88;101127.13;5045005;28;44834;-92
2021/08/09 00:32:21;;;;;;;;;36.50;34.75;;;;;19.30;68.14;101151.56;5012950;28;46752;-93
2021/08/09 00:34:47;;;;;;;;;40.25;36.75;;;;;19.54;67.71;101191.63;5054491;28;44957;-91
2021/08/09 00:37:12;;;;;;;;;15.50;15.00;;;;;19.54;69.07;101188.06;5054009;28;44872;-93
2021/08/09 00:39:40;;;;;;;;;24.25;22.25;;;;;19.54;68.20;101194.31;5071125;28;44896;-92
2021/08/09 00:42:07;;;;;;;;;31.75;31.25;;;;;19.44;68.36;101175.44;5053886;27;45161;-90
2021/08/09 00:44:35;;;;;;;;;23.75;23.00;;;;;19.41;68.65;101164.91;5033593;28;45147;-92
2021/08/09 00:47:02;;;;;;;;;33.25;32.75;;;;;19.30;68.30;101155.09;5063226;28;44678;-91
2021/08/09 00:49:28;;;;;;;;;31.50;29.75;;;;;19.27;68.45;101154.53;5058253;28;44873;-90
2021/08/09 00:51:55;;;;;;;;;40.50;37.25;;;;;19.34;69.01;101172.69;5040500;28;44986;-92
2021/08/09 00:54:21;;;;;;;;;26.25;25.00;;;;;19.46;68.39;101196.81;5082356;28;45476;-93
2021/08/09 00:56:46;;;;;;;;;24.25;24.25;;;;;19.04;68.18;101112.44;5075601;28;44710;-92
2021/08/09 00:59:15;;;;;;;;;15.50;15.50;;;;;19.27;68.65;101151.81;5091226;28;44870;-92
2021/08/09 01:01:44;;;;;;;;;24.50;24.50;;;;;19.26;68.74;101159.06;5061003;28;45183;-92
2021/08/09 01:04:11;;;;;;;;;50.25;43.25;;;;;19.02;68.87;101125.22;5095768;27;45005;-93
2021/08/09 01:06:37;;;;;;;;;14.75;14.75;;;;;19.00;68.65;101127.16;5059516;28;44651;-93
2021/08/09 01:09:12;;;;;;;;;26.00;26.00;;;;;19.32;68.30;101172.00;5073270;28;44789;-94
2021/08/09 01:11:55;;;;;;;;;36.00;34.75;;;;;19.34;68.08;101178.06;5071815;28;45269;-92
2021/08/09 01:14:50;;;;;;;;;29.25;29.25;;;;;19.26;67.94;101161.75;5060533;28;44991;-92
2021/08/09 01:17:15;;;;;;;;;42.75;36.50;;;;;19.15;68.89;101149.25;5086583;28;44757;-92
2021/08/09 01:19:44;;;;;;;;;44.25;39.50;;;;;19.25;68.13;101171.66;5092301;28;44901;-94
2021/08/09 01:22:22;;;;;;;;;32.75;32.50;;;;;19.09;68.18;101139.88;5074775;28;45333;-92
2021/08/09 01:25:35;;;;;;;;;46.25;39.75;;;;;18.75;68.78;101092.50;5069924;28;45068;-91
2021/08/09 01:28:01;;;;;;;;;33.25;32.75;;;;;18.93;68.14;101131.41;5005537;28;44827;-92
2021/08/09 01:30:27;;;;;;;;;44.75;39.75;;;;;19.05;68.61;101142.94;5008598;28;44865;-93
2021/08/09 01:32:54;;;;;;;;;34.75;29.75;;;;;18.90;68.27;101123.59;5006178;28;44962;-92
2021/08/09 01:35:24;;;;;;;;;46.00;40.67;;;;;19.03;68.09;101150.28;5024838;28;44728;-93
2021/08/09 01:37:53;;;;;;;;;15.00;13.75;;;;;18.92;68.25;101132.41;5020221;28;44785;-93
2021/08/09 01:40:18;;;;;;;;;24.00;24.00;;;;;18.99;67.81;101153.25;5036682;28;44944;-93
2021/08/09 01:42:45;;;;;;;;;38.25;35.50;;;;;19.07;67.99;101160.69;5034096;28;45206;-93
2021/08/09 01:45:12;;;;;;;;;31.00;31.00;;;;;19.02;68.54;101159.38;5021931;28;44795;-91
2021/08/09 01:47:38;;;;;;;;;31.50;31.25;;;;;18.86;68.37;101125.72;5012789;28;44826;-91
2021/08/09 01:50:05;;;;;;;;;34.00;33.00;;;;;18.70;69.06;101113.59;5030091;28;44803;-91
2021/08/09 01:52:30;;;;;;;;;19.75;19.75;;;;;18.68;68.27;101110.19;5029804;28;45130;-90
2021/08/09 01:54:57;;;;;;;;;17.25;17.00;;;;;18.75;68.65;101126.66;5030381;28;44707;-92
2021/08/09 01:57:25;;;;;;;;;26.75;24.50;;;;;18.80;68.45;101132.50;5028799;28;44857;-91
2021/08/09 01:59:50;;;;;;;;;31.50;31.50;;;;;18.93;68.50;101152.94;5070370;28;44866;-92
2021/08/09 02:02:23;;;;;;;;;32.25;32.25;;;;;18.86;68.50;101133.81;5069782;28;44954;-92
2021/08/09 02:04:49;;;;;;;;;46.75;41.00;;;;;18.79;68.42;101111.09;5081101;28;44681;-92
2021/08/09 02:07:15;;;;;;;;;32.00;31.50;;;;;19.03;68.19;101161.06;5056232;28;44763;-93
2021/08/09 02:09:40;;;;;;;;;37.00;35.50;;;;;18.66;67.44;101104.06;5067241;28;44765;-93
2021/08/09 02:12:07;;;;;;;;;35.75;33.50;;;;;18.99;68.22;101161.34;5051020;28;45048;-94
2021/08/09 02:14:34;;;;;;;;;33.75;33.25;;;;;18.83;67.47;101140.28;5072701;28;45049;-93
2021/08/09 02:17:02;;;;;;;;;21.25;19.25;;;;;18.90;68.04;101161.31;5059861;28;44828;-94
2021/08/09 02:19:46;;;;;;;;;40.75;37.00;;;;;18.62;67.98;101113.41;5071735;28;44782;-91
2021/08/09 02:22:57;;;;;;;;;27.00;25.75;;;;;18.64;67.85;101121.34;5060327;28;45163;-93
2021/08/09 02:25:27;;;;;;;;;49.00;41.75;;;;;18.70;67.71;101128.91;5064564;28;44961;-94
2021/08/09 02:28:01;;;;;;;;;30.50;30.50;;;;;18.75;68.57;101137.44;5070320;28;44823;-94
2021/08/09 02:30:27;;;;;;;;;41.00;37.75;;;;;18.66;68.45;101125.63;5051786;28;44968;-94
2021/08/09 02:32:52;;;;;;;;;27.00;27.00;;;;;18.68;68.22;101137.13;5051523;28;44914;-93
2021/08/09 02:35:18;;;;;;;;;35.00;33.25;;;;;18.73;68.54;101139.41;5053957;28;44662;-94
2021/08/09 02:37:48;;;;;;;;;35.50;33.25;;;;;18.69;68.49;101138.81;5070988;28;44704;-93
2021/08/09 02:40:13;;;;;;;;;36.25;34.75;;;;;18.81;68.62;101157.56;5096721;28;44901;-93
2021/08/09 02:42:40;;;;;;;;;16.75;16.25;;;;;18.78;68.76;101161.41;5064263;28;45248;-94
2021/08/09 02:45:08;;;;;;;;;20.50;20.00;;;;;18.63;69.42;101125.88;5081782;28;44829;-94
2021/08/09 02:47:37;;;;;;;;;20.00;20.00;;;;;18.69;68.54;101146.91;5072818;28;44671;-93
2021/08/09 02:50:06;;;;;;;;;27.50;27.50;;;;;18.72;68.50;101157.41;5090224;28;44892;-94
2021/08/09 02:52:35;;;;;;;;;28.75;26.75;;;;;18.72;68.58;101170.00;5082625;27;45250;-92
2021/08/09 02:55:00;;;;;;;;;30.25;30.00;;;;;18.69;68.71;101160.38;5080745;28;44820;-89
2021/08/09 02:57:27;;;;;;;;;19.25;16.75;;;;;18.43;68.44;101131.19;5073290;28;44847;-93
2021/08/09 02:59:52;;;;;;;;;41.50;36.00;;;;;18.39;68.44;101115.41;5060487;28;44867;-91
2021/08/09 03:02:18;;;;;;;;;37.00;35.50;;;;;18.54;68.99;101149.09;5074440;28;45208;-92
2021/08/09 03:04:44;;;;;;;;;38.00;36.00;;;;;18.65;68.46;101175.09;5023424;28;44747;-94
2021/08/09 03:07:10;;;;;;;;;52.75;45.25;;;;;18.42;68.92;101132.16;5108718;27;45199;-91
2021/08/09 03:09:35;;;;;;;;;42.25;38.50;;;;;18.60;68.94;101172.78;5069796;28;44829;-94
2021/08/09 03:12:02;;;;;;;;;49.75;42.75;;;;;18.41;68.80;101143.91;5074124;28;45545;-91
2021/08/09 03:14:30;;;;;;;;;15.50;14.25;;;;;18.20;68.47;101100.88;5054315;28;45078;-94
2021/08/09 03:17:00;;;;;;;;;32.25;31.25;;;;;18.59;68.76;101172.91;5058461;28;44778;-93
2021/08/09 03:19:25;;;;;;;;;26.50;24.00;;;;;18.39;68.83;101153.09;5082694;28;44795;-92
2021/08/09 03:21:55;;;;;;;;;14.00;14.00;;;;;18.54;69.50;101173.34;5094622;28;45349;-92
2021/08/09 03:24:22;;;;;;;;;35.75;34.50;;;;;18.44;69.67;101158.97;5076325;28;44864;-92
2021/08/09 03:26:48;;;;;;;;;45.75;40.25;;;;;18.31;69.00;101145.72;5087592;28;44849;-94
2021/08/09 03:29:14;;;;;;;;;37.00;34.75;;;;;18.04;69.07;101101.28;5078540;28;44900;-93
2021/08/09 03:31:40;;;;;;;;;25.75;25.00;;;;;18.04;69.25;101106.66;5068978;28;45254;-93
2021/08/09 03:34:06;;;;;;;;;37.00;36.00;;;;;18.35;69.23;101160.59;5050896;28;44766;-92
2021/08/09 03:36:32;;;;;;;;;30.50;30.50;;;;;18.44;69.56;101178.63;5080661;28;44777;-93
2021/08/09 03:38:57;;;;;;;;;30.00;28.50;;;;;18.41;69.35;101178.06;5069944;28;44870;-94
2021/08/09 03:41:24;;;;;;;;;31.25;30.50;;;;;18.14;69.25;101134.53;5052762;28;45209;-93
2021/08/09 03:43:50;;;;;;;;;43.25;39.25;;;;;17.93;69.49;101112.97;5069393;28;44969;-93
2021/08/09 03:46:15;;;;;;;;;42.75;38.50;;;;;18.03;68.94;101121.13;5056484;28;44770;-93
2021/08/09 03:48:43;;;;;;;;;23.75;23.75;;;;;18.09;69.70;101137.59;5071195;28;44821;-93
2021/08/09 03:51:08;;;;;;;;;32.40;30.80;;;;;18.24;69.72;101162.38;5064339;28;45265;-94
2021/08/09 03:53:37;;;;;;;;;35.50;34.50;;;;;18.05;69.63;101127.22;5016868;28;44874;-93
2021/08/09 03:56:03;;;;;;;;;37.00;35.75;;;;;18.33;69.37;101178.72;5063818;28;44668;-93
2021/08/09 03:58:29;;;;;;;;;41.00;36.00;;;;;18.09;69.35;101134.91;5048800;28;44790;-93
2021/08/09 04:00:55;;;;;;;;;39.00;36.25;;;;;18.06;68.87;101139.69;5055247;28;45116;-93
2021/08/09 04:03:20;;;;;;;;;39.00;36.67;;;;;17.88;69.58;101105.28;5079324;28;44805;-92
2021/08/09 04:05:47;;;;;;;;;36.00;32.50;;;;;18.06;69.21;101140.53;5049710;28;44791;-93
2021/08/09 04:08:15;;;;;;;;;33.50;33.50;;;;;18.16;69.62;101158.63;5066165;28;44906;-93
2021/08/09 04:10:40;;;;;;;;;47.50;41.00;;;;;17.88;69.34;101118.75;5051351;28;45745;-93
2021/08/09 04:13:10;;;;;;;;;36.25;34.25;;;;;18.06;69.37;101145.06;5031529;28;44780;-91
2021/08/09 04:15:36;;;;;;;;;27.25;27.00;;;;;18.25;69.07;101184.75;5071562;28;44754;-93
2021/08/09 04:18:01;;;;;;;;;38.33;35.00;;;;;17.90;69.87;101132.06;5089846;27;44815;-93
2021/08/09 04:20:27;;;;;;;;;30.50;30.50;;;;;18.07;69.15;101161.09;5065998;28;45007;-92
2021/08/09 04:22:52;;;;;;;;;45.00;40.25;;;;;18.09;69.00;101166.34;5047130;28;44759;-92
2021/08/09 04:25:20;;;;;;;;;42.00;35.75;;;;;18.21;69.51;101203.00;5044803;28;44727;-95
2021/08/09 04:27:47;;;;;;;;;46.00;40.50;;;;;18.22;69.28;101206.56;5082471;28;44850;-92
2021/08/09 04:30:13;;;;;;;;;47.75;41.25;;;;;17.98;69.10;101176.16;5066193;28;45237;-92
2021/08/09 04:32:39;;;;;;;;;41.33;37.33;;;;;18.17;69.11;101206.94;5046433;28;44766;-92
2021/08/09 04:35:10;;;;;;;;;37.00;35.50;;;;;17.89;69.19;101179.63;5048244;28;44846;-92
2021/08/09 04:37:35;;;;;;;;;37.50;36.00;;;;;17.85;69.38;101162.91;5080105;28;44903;-91
2021/08/09 04:40:01;;;;;;;;;21.00;21.00;;;;;18.01;69.23;101195.72;5061205;28;45096;-93
2021/08/09 04:42:26;;;;;;;;;45.75;41.00;;;;;18.00;69.20;101194.88;5044136;28;44724;-92
2021/08/09 04:44:52;;;;;;;;;22.00;22.00;;;;;18.10;69.69;101214.69;5030535;28;44675;-91
2021/08/09 04:47:19;;;;;;;;;25.00;24.50;;;;;17.89;69.38;101176.94;5067052;28;44824;-92
2021/08/09 04:49:44;;;;;;;;;38.50;36.25;;;;;17.89;69.37;101173.41;5010707;28;45055;-93
2021/08/09 04:52:11;;;;;;;;;27.00;27.00;;;;;18.17;69.21;101230.28;5039986;28;44759;-94
2021/08/09 04:54:38;;;;;;;;;30.75;30.50;;;;;17.82;69.25;101159.59;5035195;28;44817;-94
2021/08/09 04:57:03;;;;;;;;;43.25;39.00;;;;;17.86;69.28;101171.78;5043517;28;44947;-94
2021/08/09 04:59:29;;;;;;;;;30.25;30.25;;;;;18.12;68.65;101222.63;5060398;28;45130;-95
2021/08/09 05:01:58;;;;;;;;;28.00;28.00;;;;;18.16;69.18;101223.22;5039793;28;44763;-92
2021/08/09 05:04:31;;;;;;;;;44.50;39.25;;;;;17.99;69.33;101187.78;5055805;28;44730;-92
2021/08/09 05:06:57;;;;;;;;;48.00;40.75;;;;;18.16;70.10;101218.69;5058848;28;44898;-93
2021/08/09 05:09:23;;;;;;;;;37.33;35.00;;;;;17.98;69.17;101192.31;5025177;28;46721;-93
2021/08/09 05:11:48;;;;;;;;;29.25;27.00;;;;;17.97;69.41;101192.44;5038352;28;44897;-92
2021/08/09 05:14:14;;;;;;;;;30.25;26.50;;;;;17.80;69.76;101153.50;5042179;28;44819;-93
2021/08/09 05:16:42;;;;;;;;;34.50;33.75;;;;;18.02;69.65;101200.13;5058659;28;44792;-93
2021/08/09 05:19:09;;;;;;;;;16.75;15.25;;;;;17.93;69.38;101191.00;5052023;28;45084;-93
2021/08/09 05:21:34;;;;;;;;;37.75;34.50;;;;;17.96;69.35;101207.72;5030976;28;44860;-92
2021/08/09 05:24:08;;;;;;;;;34.33;33.33;;;;;18.02;69.52;101214.41;5034296;28;44787;-93
2021/08/09 05:26:34;;;;;;;;;41.50;37.50;;;;;18.03;69.27;101205.38;5047774;28;44899;-95
2021/08/09 05:29:00;;;;;;;;;31.50;29.75;;;;;18.03;69.69;101197.31;5065538;28;45744;-93
2021/08/09 05:31:27;;;;;;;;;22.00;22.00;;;;;18.08;69.69;101199.59;5019242;28;44839;-93
2021/08/09 05:33:57;;;;;;;;;44.25;37.50;;;;;17.99;69.68;101185.94;5037941;28;44753;-92
2021/08/09 05:36:23;;;;;;;;;43.50;37.50;;;;;18.10;69.58;101198.53;5038052;28;44845;-93
2021/08/09 05:38:49;;;;;;;;;28.25;26.75;;;;;18.15;69.12;101206.19;5065618;28;45417;-93
2021/08/09 05:41:17;;;;;;;;;27.75;27.75;;;;;17.98;69.15;101176.16;5039070;28;44762;-94
2021/08/09 05:43:42;;;;;;;;;56.50;48.50;;;;;18.30;69.65;101233.66;5051803;28;44666;-93
2021/08/09 05:46:11;;;;;;;;;34.67;33.33;;;;;18.34;69.90;101234.28;5052594;28;44874;-92
2021/08/09 05:48:39;;;;;;;;;39.25;36.75;;;;;18.19;70.05;101204.13;5036890;28;45688;-95
2021/08/09 05:51:06;;;;;;;;;29.67;29.67;;;;;18.07;69.58;101182.63;5034838;28;44985;-93
2021/08/09 05:53:35;;;;;;;;;46.25;41.00;;;;;18.15;69.62;101190.06;5046738;28;44818;-93
2021/08/09 05:56:01;;;;;;;;;15.50;15.50;;;;;18.11;69.87;101178.72;5091420;28;44808;-92
2021/08/09 05:58:28;;;;;;;;;28.00;25.75;;;;;18.39;69.79;101215.00;5091238;27;45606;-93
2021/08/09 06:00:54;;;;;;;;;51.00;44.33;;;;;18.33;70.15;101200.25;5061354;28;44778;-93
2021/08/09 06:03:22;;;;;;;;;35.25;34.25;;;;;18.53;70.08;101230.84;5061315;28;44813;-94
2021/08/09 06:05:48;;;;;;;;;36.00;32.33;;;;;18.43;69.71;101206.56;5065517;28;44914;-92
2021/08/09 06:08:14;;;;;;;;;49.50;42.25;;;;;18.61;70.03;101241.84;5063165;28;45030;-92
2021/08/09 06:10:43;;;;;;;;;52.67;42.00;;;;;18.44;69.66;101208.25;5060688;28;44687;-92
2021/08/09 06:13:08;;;;;;;;;30.25;30.25;;;;;18.36;69.50;101197.28;5067787;27;44886;-91
2021/08/09 06:15:34;;;;;;;;;43.00;38.00;;;;;18.52;69.73;101226.47;5090958;28;44818;-93
2021/08/09 06:17:59;;;;;;;;;18.50;18.50;;;;;18.48;69.77;101206.16;5049881;28;45230;-93
2021/08/09 06:20:25;;;;;;;;;53.25;45.00;;;;;18.72;69.74;101251.66;5054410;28;44847;-92
2021/08/09 06:22:51;;;;;;;;;23.50;22.50;;;;;18.79;69.60;101253.84;5069358;28;44838;-93
2021/08/09 06:25:18;;;;;;;;;43.67;38.33;;;;;18.61;69.08;101225.69;5049848;28;44830;-94
2021/08/09 06:27:44;;;;;;;;;45.50;39.00;;;;;18.58;69.21;101206.22;5067170;28;45307;-92
2021/08/09 06:30:12;;;;;;;;;43.50;38.50;;;;;18.53;69.21;101198.53;5053319;28;44894;-94
2021/08/09 06:32:37;;;;;;;;;32.00;29.50;;;;;18.84;69.96;101254.28;5066379;28;44766;-94
2021/08/09 06:35:05;;;;;;;;;38.25;34.75;;;;;18.92;69.43;101259.03;5028227;28;44815;-94
2021/08/09 06:37:30;;;;;;;;;25.00;24.50;;;;;18.88;69.02;101264.69;5037139;28;45207;-93
2021/08/09 06:39:58;;;;;;;;;39.50;35.75;;;;;18.74;68.96;101249.72;5067738;28;44805;-94
2021/08/09 06:42:23;;;;;;;;;20.75;20.00;;;;;18.65;69.41;101231.63;5059881;28;44752;-92
2021/08/09 06:44:49;;;;;;;;;44.00;39.25;;;;;18.72;69.60;101237.34;5032188;28;44899;-94
2021/08/09 06:47:15;;;;;;;;;47.25;40.50;;;;;18.55;69.53;101217.25;5036322;28;45205;-91
2021/08/09 06:49:45;;;;;;;;;36.75;35.00;;;;;18.91;69.59;101271.63;5065977;28;45087;-91
2021/08/09 06:52:18;;;;;;;;;25.00;25.00;;;;;18.77;69.77;101239.66;5067175;28;44802;-92
2021/08/09 06:54:46;;;;;;;;;58.00;48.50;;;;;18.72;69.85;101229.25;5068927;28;44913;-92
2021/08/09 06:57:15;;;;;;;;;40.25;36.25;;;;;18.97;69.99;101287.28;5074134;28;45273;-93
2021/08/09 06:59:44;;;;;;;;;20.75;20.75;;;;;18.98;69.86;101267.41;5075298;28;45034;-93
2021/08/09 07:02:10;;;;;;;;;47.50;38.50;;;;;18.75;69.30;101231.69;5072847;28;44894;-92
2021/08/09 07:04:35;;;;;;;;;43.00;38.25;;;;;18.77;69.36;101220.78;5067880;28;44929;-92
2021/08/09 07:07:04;;;;;;;;;28.25;28.25;;;;;18.74;69.93;101224.59;5045295;28;45020;-93
2021/08/09 07:09:30;;;;;;;;;20.75;20.75;;;;;18.76;69.60;101228.00;5063908;28;44825;-93
2021/08/09 07:11:56;;;;;;;;;32.00;31.50;;;;;18.93;70.09;101258.03;5069960;28;44731;-92
2021/08/09 07:14:22;;;;;;;;;22.75;22.75;;;;;18.93;69.85;101252.63;5066566;28;44815;-93
2021/08/09 07:16:50;;;;;;;;;50.50;42.75;;;;;19.00;69.76;101261.91;5066241;28;45146;-92
2021/08/09 07:19:19;;;;;;;;;35.75;32.25;;;;;19.07;69.93;101268.50;5069080;28;44777;-93
2021/08/09 07:21:46;;;;;;;;;43.50;38.50;;;;;19.03;70.24;101252.69;5064821;28;44773;-92
2021/08/09 07:24:15;;;;;;;;;40.50;37.25;;;;;19.28;69.74;101289.16;5056758;28;44892;-92
2021/08/09 07:26:41;;;;;;;;;40.67;35.67;;;;;19.22;69.78;101274.41;5070236;28;46635;-92
2021/08/09 07:29:07;;;;;;;;;35.75;33.50;;;;;19.36;69.68;101293.88;5069447;28;44936;-90
2021/08/09 07:31:33;;;;;;;;;27.25;26.50;;;;;19.27;69.42;101254.25;5058108;28;44739;-90
2021/08/09 07:34:00;;;;;;;;;35.25;31.50;;;;;19.31;70.06;101263.78;5053925;28;44788;-92
2021/08/09 07:36:27;;;;;;;;;44.50;39.25;;;;;19.13;69.38;101234.75;5088491;28;45168;-91
2021/08/09 07:38:56;;;;;;;;;35.50;32.00;;;;;19.27;69.63;101248.88;5062867;28;44991;-91
2021/08/09 07:41:25;;;;;;;;;45.75;39.00;;;;;19.37;69.64;101247.91;5079430;28;44996;-91
2021/08/09 07:43:51;;;;;;;;;31.75;31.75;;;;;19.41;69.83;101242.25;5057305;28;44858;-91
2021/08/09 07:46:16;;;;;;;;;38.00;34.00;;;;;19.57;69.61;101266.84;5064323;28;45489;-90
2021/08/09 07:48:44;;;;;;;;;31.50;31.00;;;;;19.56;69.20;101253.50;5089178;28;44893;-90
2021/08/09 07:51:11;;;;;;;;;25.50;25.50;;;;;19.62;69.46;101261.91;5051067;28;44770;-87
2021/08/09 07:53:36;;;;;;;;;29.00;28.25;;;;;19.87;69.48;101294.75;5081187;28;44916;-91
2021/08/09 07:56:02;;;;;;;;;21.75;21.00;;;;;19.72;69.60;101261.91;5081519;28;45044;-91
2021/08/09 07:58:27;;;;;;;;;37.33;34.67;;;;;19.96;68.57;101295.78;5073343;28;44781;-91
2021/08/09 08:00:53;;;;;;;;;44.00;37.75;;;;;19.89;68.91;101286.53;5056258;28;44758;-91
2021/08/09 08:03:25;;;;;;;;;31.75;29.00;;;;;20.04;69.47;101299.66;5071854;28;44774;-92
2021/08/09 08:06:03;;;;;;;;;49.25;41.50;;;;;19.88;68.56;101268.59;5075143;28;45134;-92
2021/08/09 08:08:28;;;;;;;;;16.25;13.50;;;;;20.04;68.49;101294.25;5069480;27;44941;-92
2021/08/09 08:10:57;;;;;;;;;27.75;26.75;;;;;19.82;69.17;101253.00;5064034;28;44774;-93
2021/08/09 08:13:23;;;;;;;;;37.00;34.00;;;;;19.96;68.85;101289.50;5053491;28;44997;-93
2021/08/09 08:15:48;;;;;;;;;39.25;32.75;;;;;19.86;68.61;101267.91;5052292;28;45086;-93
2021/08/09 08:18:16;;;;;;;;;29.25;29.00;;;;;19.71;69.09;101241.34;5068568;28;44858;-92
2021/08/09 08:20:44;;;;;;;;;22.50;22.50;;;;;19.93;69.02;101279.00;5080585;28;44790;-94
2021/08/09 08:23:11;;;;;;;;;27.00;26.25;;;;;20.11;69.14;101298.94;5056157;28;44959;-92
2021/08/09 08:25:38;;;;;;;;;26.50;24.75;;;;;20.07;69.33;101288.59;5044612;28;45119;-91
2021/08/09 08:28:03;;;;;;;;;37.00;31.50;;;;;20.02;69.14;101270.09;5069775;28;44979;-94
2021/08/09 08:30:29;;;;;;;;;12.50;12.50;;;;;20.04;69.16;101275.38;5038198;28;44838;-91
2021/08/09 08:32:55;;;;;;;;;40.75;36.00;;;;;20.05;69.15;101272.53;5056931;28;44903;-94
2021/08/09 08:35:23;;;;;;;;;35.75;33.75;;;;;20.08;68.31;101266.81;5074899;28;45133;-91
2021/08/09 08:37:52;;;;;;;;;22.00;22.00;;;;;20.34;68.94;101314.03;5071917;28;44950;-91
2021/08/09 08:40:49;;;;;;;;;38.75;33.50;;;;;20.08;68.49;101271.38;5092251;27;44784;-95
2021/08/09 08:43:27;;;;;;;;;33.50;31.50;;;;;20.21;68.12;101290.00;5058482;28;44973;-94
2021/08/09 08:57:17;;;;;;;;;38.00;34.50;;;;;20.26;67.63;101314.72;5047232;28;45709;-95
2021/08/09 09:02:40;;;;;;;;;39.50;35.25;;;;;20.34;67.97;101312.19;5763979;22;44996;-92
2021/08/09 09:05:41;;;;;;;;;41.50;37.00;;;;;20.38;68.11;101324.41;5069022;27;44821;-92
2021/08/09 09:08:44;;;;;;;;;29.25;29.25;;;;;20.17;67.33;101289.41;5102484;27;45013;-91
2021/08/09 09:11:32;;;;;;;;;28.00;25.25;;;;;20.09;67.92;101273.09;5063180;27;45222;-91
2021/08/09 09:14:03;;;;;;;;;41.00;35.50;;;;;20.25;68.06;101294.13;5069536;28;44831;-91
2021/08/09 09:16:57;;;;;;;;;27.00;26.50;;;;;20.46;68.00;101329.09;5035816;28;44861;-92
2021/08/09 09:19:40;;;;;;;;;35.75;32.00;;;;;20.55;66.73;101334.66;5050833;28;45066;-92
2021/08/09 09:22:08;;;;;;;;;27.25;27.25;;;;;20.48;66.92;101324.41;5075364;28;44912;-93
2021/08/09 09:24:34;;;;;;;;;41.00;36.25;;;;;20.71;67.28;101347.56;5081987;28;44832;-92
2021/08/09 09:27:29;;;;;;;;;45.00;39.00;;;;;20.48;67.12;101300.09;5044148;28;44890;-94
2021/08/09 09:30:28;;;;;;;;;41.50;35.75;;;;;20.77;66.97;101330.78;4985654;28;45308;-92
2021/08/09 09:34:02;;;;;;;;;33.75;32.25;;;;;20.99;67.06;101356.69;4956820;28;44969;-94
2021/08/09 09:37:15;;;;;;;;;;;;;;;;;;;;;
2021/08/09 09:44:55;;;;;;;;;27.00;26.25;;;;;21.14;64.99;101348.97;5155921;22;45686;-93
2021/08/09 09:47:36;;;;;;;;;26.25;25.00;;;;;21.02;65.63;101317.69;5106631;28;44530;-92
2021/08/09 09:50:21;;;;;;;;;17.00;15.00;;;;;21.17;65.79;101337.84;5071433;28;44915;-95
2021/08/09 09:53:21;;;;;;;;;39.00;34.00;;;;;21.36;64.40;101356.88;5072218;28;45166;-91
2021/08/09 09:55:53;;;;;;;;;30.75;28.75;;;;;21.51;64.38;101363.53;5104420;27;44835;-91
2021/08/09 09:58:19;;;;;;;;;28.25;25.00;;;;;21.58;64.32;101363.78;5070480;28;44797;-94
2021/08/09 10:00:55;;;;;;;;;34.50;32.25;;;;;21.58;63.40;101346.69;5105420;22;44942;-91
2021/08/09 10:08:48;;;;;;;;;38.50;31.50;;;;;21.97;63.28;101375.47;5248830;22;46284;-92
2021/08/09 10:14:04;;;;;;;;;34.60;29.60;;;;;22.02;61.70;101363.19;5491584;22;45721;-91
2021/08/09 10:16:37;;;;;;;;;43.40;38.00;;;;;21.91;62.66;101342.56;5113861;27;44778;-95
2021/08/09 10:19:09;;;;;;;;;35.80;31.20;;;;;21.88;63.34;101339.31;5107320;27;44826;-93
2021/08/09 10:24:39;;;;;;;;;37.00;31.40;;;;;22.08;61.49;101358.16;5184215;22;45167;-93
2021/08/09 10:27:06;;;;;;;;;42.60;36.40;;;;;22.10;62.32;101365.09;5093988;27;44786;-95
2021/08/09 10:29:32;;;;;;;;;72.50;66.17;;;;;22.08;61.09;101345.47;5127102;27;44777;-95
2021/08/09 10:32:23;;;;;;;;;33.00;29.40;;;;;22.14;60.72;101350.28;5120620;27;44856;-93
2021/08/09 10:34:53;;;;;;;;;43.60;38.20;;;;;22.18;61.93;101357.09;5123629;27;45333;-95
2021/08/09 10:48:16;;;;;;;;;34.60;30.20;;;;;22.13;61.43;101353.16;4162542;22;44879;-93
2021/08/09 10:50:59;;;;;;;;;31.40;27.40;;;;;22.07;61.31;101346.47;5089172;22;44812;-92
2021/08/09 11:02:16;;;;;;;;;64.20;55.40;;;;;22.35;62.28;101354.53;5443564;22;45711;-93
2021/08/09 11:05:15;;;;;;;;;68.20;60.00;;;;;22.35;61.39;101340.16;5048485;28;44739;-94
2021/08/09 11:08:10;;;;;;;;;74.33;68.83;;;;;22.29;61.36;101337.06;5031533;28;45516;-93
2021/08/09 11:11:09;;;;;;;;;72.17;65.17;;;;;22.49;61.56;101349.59;5006990;28;45177;-94
2021/08/09 11:17:09;;;;;;;;;75.33;67.67;;;;;22.43;60.74;101343.78;5487184;22;45882;-95
2021/08/09 11:19:41;;;;;;;;;81.50;77.00;;;;;22.39;60.37;101326.13;5110485;27;45055;-96
2021/08/09 11:22:10;;;;;;;;;76.50;70.83;;;;;22.34;61.21;101322.19;5064404;27;44675;-93
2021/08/09 11:24:38;;;;;;;;;74.80;68.20;;;;;22.22;61.45;101298.03;5068347;27;44896;-94
2021/08/09 11:27:14;;;;;;;;;85.50;80.17;;;;;22.37;61.15;101325.44;5101897;27;44755;-94
2021/08/09 11:29:56;;;;;;;;;81.33;75.83;;;;;22.47;59.03;101332.63;5101595;27;45461;-94
2021/08/09 11:35:44;;;;;;;;;46.25;41.00;;;;;22.45;60.08;101335.50;5097646;27;44679;-92
2021/08/09 11:38:12;;;;;;;;;88.00;83.83;;;;;22.51;59.76;101347.56;5075502;27;44866;-91
2021/08/09 11:40:41;;;;;;;;;88.00;83.83;;;;;22.53;60.79;101324.75;5076619;27;45298;-93
2021/08/09 11:43:09;;;;;;;;;84.83;81.00;;;;;22.55;60.63;101314.59;5105442;27;44735;-91
2021/08/09 11:45:46;;;;;;;;;104.75;104.75;;;;;22.74;59.81;101344.44;5097605;27;44797;-92
2021/08/09 11:48:12;;;;;;;;;86.00;82.33;;;;;22.73;59.08;101340.84;5076554;27;44815;-92
2021/08/09 11:50:44;;;;;;;;;102.00;102.00;;;;;22.56;57.28;101307.31;5069907;27;45350;-92
2021/08/09 11:53:10;;;;;;;;;84.17;79.83;;;;;22.79;59.15;101339.38;5080789;27;44769;-93
2021/08/09 11:55:43;;;;;;;;;84.80;81.20;;;;;22.63;57.97;101305.72;5098091;27;44760;-92
2021/08/09 11:58:09;;;;;;;;;105.40;104.80;;;;;22.80;59.33;101328.38;5044591;28;44824;-94
2021/08/09 12:00:43;;;;;;;;;118.80;118.40;;;;;22.71;59.93;101304.09;5094647;28;45023;-96
2021/08/09 12:03:17;;;;;;;;;108.60;108.00;;;;;22.60;60.02;101287.06;5073163;27;44819;-96
2021/08/09 12:05:43;;;;;;;;;119.80;119.00;;;;;22.91;59.44;101326.44;5056300;28;44772;-96
2021/08/09 12:08:09;;;;;;;;;105.40;105.40;;;;;22.78;58.10;101314.13;5088209;28;44738;-96
2021/08/09 12:10:39;;;;;;;;;86.33;82.67;;;;;22.97;57.83;101335.78;5078071;28;45113;-95
2021/08/09 12:13:28;;;;;;;;;112.60;112.00;;;;;22.86;58.33;101310.63;5078848;27;44775;-96
2021/08/09 12:16:07;;;;;;;;;92.17;90.00;;;;;22.83;59.04;101310.94;5089424;27;44845;-95
2021/08/09 12:18:35;;;;;;;;;88.17;84.50;;;;;22.79;58.97;101306.84;5061670;28;44821;-93